Terminal Aerodrome Forecast
Issued by NWS

Home | Current Version | Previous Version | Text Only | Print | Product List | Glossary Off
Versions: 1 2 3 4 5 6 7 8 9 10 11 12 13 14

000
FTUS45 KGGW 260526
TAFSDY
TAF
KSDY 260526Z 2606/2706 02006KT P6SM FEW250
     FM261700 07007KT P6SM SCT250
     FM261800 08007KT P6SM VCTS BKN100CB=

USA.gov is the U.S. government's official web portal to all federal, state and local government web resources and services.